Time;durP1;ratioP1;P1;durP2;ratioP2;P2;SDS_P1;SDS_P2;PMS_P1;PMS_P2;Temp;Humidity;BMP_temperature;BMP_pressure;BME280_temperature;BME280_humidity;BME280_pressure;Samples;Min_cycle;Max_cycle;Signal;HPM_P1;HPM_P2
2023/04/18 00:02:16;;;;;;;10.70;8.77;;;10.20;99.90;;;;;;5072682;28;20251;-56
2023/04/18 00:04:45;;;;;;;9.87;8.77;;;10.30;99.90;;;;;;5072983;28;20209;-56
2023/04/18 00:07:13;;;;;;;10.00;8.90;;;10.40;99.90;;;;;;5072225;28;20204;-56
2023/04/18 00:09:40;;;;;;;9.80;7.63;;;10.30;99.90;;;;;;5072444;28;20224;-56
2023/04/18 00:12:07;;;;;;;11.27;8.13;;;10.30;99.90;;;;;;5072049;28;20765;-55
2023/04/18 00:14:36;;;;;;;10.60;8.80;;;10.40;99.90;;;;;;5072621;28;20236;-57
2023/04/18 00:17:07;;;;;;;9.37;8.10;;;10.40;99.90;;;;;;5072143;28;20213;-56
2023/04/18 00:19:34;;;;;;;9.73;8.27;;;10.50;99.90;;;;;;5072916;28;20212;-56
2023/04/18 00:22:02;;;;;;;9.27;8.13;;;10.40;99.90;;;;;;5072580;28;20220;-56
2023/04/18 00:24:29;;;;;;;12.33;8.57;;;10.40;99.90;;;;;;5072728;28;20424;-55
2023/04/18 00:26:56;;;;;;;9.83;8.33;;;10.30;99.90;;;;;;5072300;28;20231;-56
2023/04/18 00:29:22;;;;;;;9.93;8.13;;;10.20;99.90;;;;;;5072609;28;20231;-55
2023/04/18 00:31:49;;;;;;;11.53;8.23;;;10.20;99.90;;;;;;5072093;28;20243;-56
2023/04/18 00:34:16;;;;;;;9.07;7.87;;;10.20;99.90;;;;;;5072155;28;20205;-57
2023/04/18 00:36:42;;;;;;;9.03;7.63;;;10.20;99.90;;;;;;5071734;28;20699;-56
2023/04/18 00:39:10;;;;;;;9.83;7.73;;;10.20;99.90;;;;;;5072095;28;20208;-56
2023/04/18 00:41:37;;;;;;;10.07;8.13;;;10.20;99.90;;;;;;5072233;28;20232;-55
2023/04/18 00:44:04;;;;;;;10.07;7.97;;;10.30;99.90;;;;;;5072057;28;20695;-55
2023/04/18 00:46:31;;;;;;;10.63;7.70;;;10.30;99.90;;;;;;5072025;28;20236;-56
2023/04/18 00:48:58;;;;;;;10.40;8.20;;;10.30;99.90;;;;;;5072190;28;20262;-56
2023/04/18 00:51:25;;;;;;;9.73;8.17;;;10.30;99.90;;;;;;5071973;28;20227;-57
2023/04/18 00:53:52;;;;;;;9.63;8.50;;;10.30;99.90;;;;;;5071978;28;20216;-57
2023/04/18 00:56:20;;;;;;;9.60;7.97;;;10.30;99.90;;;;;;5071988;28;21001;-57
2023/04/18 00:58:46;;;;;;;10.07;7.73;;;10.40;99.90;;;;;;5072192;28;20232;-56
2023/04/18 01:01:13;;;;;;;11.07;8.17;;;10.40;99.90;;;;;;5072084;28;20232;-56
2023/04/18 01:03:40;;;;;;;8.53;7.63;;;10.40;99.90;;;;;;5072359;28;20572;-56
2023/04/18 01:06:07;;;;;;;9.27;8.20;;;10.40;99.90;;;;;;5071960;28;20209;-56
2023/04/18 01:08:34;;;;;;;9.90;7.70;;;10.40;99.90;;;;;;5072149;28;20212;-56
2023/04/18 01:11:00;;;;;;;9.57;8.17;;;10.40;99.90;;;;;;5072090;28;20692;-56
2023/04/18 01:13:29;;;;;;;10.43;8.07;;;10.50;99.90;;;;;;5071936;28;20220;-56
2023/04/18 01:15:55;;;;;;;9.13;8.13;;;10.50;99.90;;;;;;5071716;28;20584;-56
2023/04/18 01:18:23;;;;;;;9.73;8.43;;;10.50;99.90;;;;;;5071883;28;20583;-56
2023/04/18 01:20:51;;;;;;;9.30;8.20;;;10.50;99.90;;;;;;5071526;28;20220;-57
2023/04/18 01:23:19;;;;;;;11.17;8.73;;;10.50;99.90;;;;;;5071959;28;20202;-57
2023/04/18 01:25:49;;;;;;;10.63;8.87;;;10.50;99.90;;;;;;5075329;28;20622;-57
2023/04/18 01:28:16;;;;;;;11.20;9.10;;;10.40;99.90;;;;;;5075394;28;20231;-57
2023/04/18 01:30:43;;;;;;;9.60;8.60;;;10.30;99.90;;;;;;5075390;28;20229;-56
2023/04/18 01:36:32;;;;;;;10.03;8.60;;;10.20;99.90;;;;;;5074722;28;20188;-55
2023/04/18 01:38:59;;;;;;;11.93;9.23;;;10.20;99.90;;;;;;5075483;28;20201;-54
2023/04/18 01:41:31;;;;;;;9.13;8.17;;;10.10;99.90;;;;;;5075388;28;20232;-56
2023/04/18 01:43:57;;;;;;;9.03;7.97;;;10.10;99.90;;;;;;5075746;28;20300;-55
2023/04/18 01:46:24;;;;;;;10.07;8.43;;;9.90;99.90;;;;;;5074998;28;20668;-56
2023/04/18 01:48:51;;;;;;;11.33;8.87;;;9.90;99.90;;;;;;5075535;28;20693;-55
2023/04/18 01:51:18;;;;;;;11.67;8.77;;;9.80;99.90;;;;;;5074891;28;20227;-55
2023/04/18 01:53:44;;;;;;;11.50;8.97;;;9.70;99.90;;;;;;5075050;28;20216;-54
2023/04/18 01:56:11;;;;;;;9.77;8.50;;;9.70;99.90;;;;;;5075122;28;20584;-54
2023/04/18 01:58:40;;;;;;;9.23;8.13;;;9.60;99.90;;;;;;5075004;28;20209;-54
2023/04/18 02:01:07;;;;;;;10.43;8.73;;;9.60;99.90;;;;;;5074914;28;20205;-55
2023/04/18 02:03:34;;;;;;;10.33;8.80;;;9.60;99.90;;;;;;5074962;28;20216;-54
2023/04/18 02:06:01;;;;;;;10.27;8.80;;;9.60;99.90;;;;;;5074701;28;20228;-56
2023/04/18 02:08:29;;;;;;;9.93;8.90;;;9.60;99.90;;;;;;5074798;28;20232;-55
2023/04/18 02:10:56;;;;;;;10.70;8.43;;;9.70;99.90;;;;;;5074876;28;20312;-55
2023/04/18 02:13:23;;;;;;;9.63;8.57;;;9.60;99.90;;;;;;5074712;28;20291;-54
2023/04/18 02:15:51;;;;;;;10.13;8.40;;;9.70;99.90;;;;;;5074489;28;20209;-54
2023/04/18 02:18:17;;;;;;;10.63;8.77;;;9.70;99.90;;;;;;5074641;28;20213;-55
2023/04/18 02:20:44;;;;;;;9.67;8.37;;;9.60;99.90;;;;;;5074878;28;20204;-55
2023/04/18 02:23:11;;;;;;;9.47;8.47;;;9.70;99.90;;;;;;5074666;28;20229;-56
2023/04/18 02:25:38;;;;;;;11.57;8.90;;;9.80;99.90;;;;;;5074352;28;20209;-55
2023/04/18 02:28:04;;;;;;;10.60;8.43;;;9.60;99.90;;;;;;5074415;28;20209;-55
2023/04/18 02:30:31;;;;;;;10.13;8.67;;;9.50;99.90;;;;;;5074271;28;20282;-56
2023/04/18 02:32:59;;;;;;;10.37;9.27;;;9.40;99.90;;;;;;5073977;28;20233;-55
2023/04/18 02:35:27;;;;;;;10.03;8.83;;;9.30;99.90;;;;;;5073470;28;20673;-55
2023/04/18 02:37:54;;;;;;;10.77;8.93;;;9.40;99.90;;;;;;5073973;28;20754;-54
2023/04/18 02:40:21;;;;;;;10.10;8.77;;;9.30;99.90;;;;;;5073937;28;20197;-54
2023/04/18 02:42:48;;;;;;;10.97;8.67;;;9.30;99.90;;;;;;5073794;28;20727;-55
2023/04/18 02:45:15;;;;;;;10.33;8.70;;;9.20;99.90;;;;;;5073984;28;20208;-54
2023/04/18 02:47:44;;;;;;;10.27;8.17;;;9.10;99.90;;;;;;5073486;28;20212;-54
2023/04/18 02:50:12;;;;;;;10.37;8.93;;;9.10;99.90;;;;;;5073553;28;20256;-55
2023/04/18 02:52:39;;;;;;;11.23;9.10;;;9.20;99.90;;;;;;5073863;28;20236;-54
2023/04/18 02:55:06;;;;;;;12.30;8.90;;;9.20;99.90;;;;;;5074100;28;20331;-54
2023/04/18 02:57:33;;;;;;;11.87;9.03;;;9.30;99.90;;;;;;5073634;28;20201;-54
2023/04/18 02:59:59;;;;;;;10.73;8.50;;;9.30;99.90;;;;;;5073810;28;20196;-54
2023/04/18 03:02:26;;;;;;;10.53;8.87;;;9.30;99.90;;;;;;5073834;28;20631;-55
2023/04/18 03:04:53;;;;;;;10.87;8.70;;;9.40;99.90;;;;;;5073653;28;20221;-54
2023/04/18 03:07:21;;;;;;;9.73;8.67;;;9.30;99.90;;;;;;5073100;28;20788;-54
2023/04/18 03:09:48;;;;;;;83.90;73.73;;;9.20;99.90;;;;;;5073261;28;20720;-54
2023/04/18 03:12:15;;;;;;;16.43;11.97;;;9.20;99.90;;;;;;5073058;28;20225;-54
2023/04/18 03:14:43;;;;;;;10.60;8.63;;;9.30;99.90;;;;;;5073356;28;20208;-54
2023/04/18 03:17:10;;;;;;;11.80;9.17;;;9.30;99.90;;;;;;5072931;28;20209;-54
2023/04/18 03:19:36;;;;;;;11.13;8.87;;;9.30;99.90;;;;;;5073153;28;20205;-56
2023/04/18 03:22:03;;;;;;;12.37;8.30;;;9.30;99.90;;;;;;5073192;28;20224;-54
2023/04/18 03:24:31;;;;;;;11.40;9.40;;;9.30;99.90;;;;;;5073036;28;20208;-54
2023/04/18 03:26:59;;;;;;;10.30;8.47;;;9.20;99.90;;;;;;5073157;28;20209;-54
2023/04/18 03:29:26;;;;;;;12.97;9.53;;;9.30;99.90;;;;;;5072665;28;20704;-55
2023/04/18 03:31:52;;;;;;;10.10;8.40;;;9.30;99.90;;;;;;5073060;28;20244;-55
2023/04/18 03:34:19;;;;;;;10.53;8.10;;;9.30;99.90;;;;;;5072970;28;20205;-54
2023/04/18 03:36:46;;;;;;;10.03;8.40;;;9.40;99.90;;;;;;5072560;28;20691;-55
2023/04/18 03:39:13;;;;;;;10.73;8.90;;;9.50;99.90;;;;;;5072878;28;20209;-54
2023/04/18 03:41:41;;;;;;;10.00;8.63;;;9.50;99.90;;;;;;5072799;28;20232;-55
2023/04/18 03:44:08;;;;;;;10.77;9.00;;;9.60;99.90;;;;;;5072988;28;20484;-55
2023/04/18 03:46:35;;;;;;;11.40;9.80;;;9.60;99.90;;;;;;5071943;28;20205;-54
2023/04/18 03:49:02;;;;;;;12.87;9.27;;;9.70;99.90;;;;;;5072808;28;20216;-55
2023/04/18 03:51:33;;;;;;;10.60;8.93;;;9.70;99.90;;;;;;5072443;28;20234;-55
2023/04/18 03:54:00;;;;;;;9.43;8.43;;;9.80;99.90;;;;;;5072747;28;20245;-56
2023/04/18 03:56:27;;;;;;;11.60;8.80;;;9.70;99.90;;;;;;5072537;28;20212;-54
2023/04/18 03:58:55;;;;;;;10.27;8.73;;;9.70;99.90;;;;;;5072575;28;20235;-55
2023/04/18 04:01:22;;;;;;;11.77;9.47;;;9.80;99.90;;;;;;5072295;28;20225;-54
2023/04/18 04:03:48;;;;;;;11.47;8.63;;;9.80;99.90;;;;;;5072587;28;20220;-54
2023/04/18 04:06:16;;;;;;;9.30;8.37;;;9.70;99.90;;;;;;5072234;28;20555;-55
2023/04/18 04:08:43;;;;;;;9.83;8.60;;;9.60;99.90;;;;;;5072428;28;20292;-55
2023/04/18 04:11:10;;;;;;;10.43;8.73;;;9.60;99.90;;;;;;5072007;28;20217;-56
2023/04/18 04:13:37;;;;;;;10.33;8.80;;;9.70;99.90;;;;;;5072608;28;20309;-54
2023/04/18 04:16:06;;;;;;;11.33;8.67;;;9.70;99.90;;;;;;5072388;28;20201;-55
2023/04/18 04:18:33;;;;;;;12.63;8.93;;;9.70;99.90;;;;;;5072670;28;20250;-55
2023/04/18 04:21:00;;;;;;;12.17;8.83;;;9.70;99.90;;;;;;5072407;28;20229;-55
2023/04/18 04:23:27;;;;;;;9.43;8.13;;;9.70;99.90;;;;;;5072576;28;20212;-54
2023/04/18 04:25:54;;;;;;;10.17;8.47;;;9.60;99.90;;;;;;5072474;28;20215;-55
2023/04/18 04:28:22;;;;;;;9.20;8.23;;;9.60;99.90;;;;;;5072397;28;20200;-54
2023/04/18 04:30:50;;;;;;;9.90;8.53;;;9.60;99.90;;;;;;5072186;28;20315;-55
2023/04/18 04:33:19;;;;;;;10.30;9.07;;;9.60;99.90;;;;;;5072084;28;20286;-54
2023/04/18 04:35:46;;;;;;;9.73;8.73;;;9.60;99.90;;;;;;5072205;28;20204;-55
2023/04/18 04:38:13;;;;;;;14.40;9.57;;;9.60;99.90;;;;;;5072532;28;20216;-55
2023/04/18 04:40:40;;;;;;;10.80;8.43;;;9.70;99.90;;;;;;5072529;28;20204;-55
2023/04/18 04:43:11;;;;;;;11.10;8.77;;;9.80;99.90;;;;;;5072488;28;20225;-54
2023/04/18 04:45:40;;;;;;;11.77;9.27;;;9.80;99.90;;;;;;5072425;28;20647;-55
2023/04/18 04:48:07;;;;;;;13.77;10.27;;;9.90;99.90;;;;;;5072284;28;20626;-56
2023/04/18 04:50:37;;;;;;;11.17;8.80;;;9.90;99.90;;;;;;5072054;28;20236;-55
2023/04/18 04:53:03;;;;;;;11.63;8.93;;;10.00;99.90;;;;;;5072297;28;20225;-55
2023/04/18 04:55:31;;;;;;;12.47;10.03;;;9.90;99.90;;;;;;5072495;28;20664;-55
2023/04/18 04:57:58;;;;;;;12.20;8.90;;;9.90;99.90;;;;;;5073230;28;20231;-54
2023/04/18 05:00:24;;;;;;;9.50;8.40;;;10.00;99.90;;;;;;5076186;28;20208;-54
2023/04/18 05:02:53;;;;;;;9.73;8.70;;;10.00;99.90;;;;;;5076032;28;20228;-54
2023/04/18 05:05:20;;;;;;;11.47;8.80;;;10.00;99.90;;;;;;5075827;28;20216;-54
2023/04/18 05:07:48;;;;;;;12.60;8.93;;;10.10;99.90;;;;;;5076046;28;20200;-54
2023/04/18 05:10:15;;;;;;;10.63;9.20;;;10.20;99.90;;;;;;5076297;28;20232;-54
2023/04/18 05:12:41;;;;;;;11.83;9.00;;;10.10;99.90;;;;;;5076121;28;20229;-55
2023/04/18 05:15:09;;;;;;;10.77;8.20;;;10.20;99.90;;;;;;5076242;28;20558;-54
2023/04/18 05:17:35;;;;;;;10.13;8.70;;;10.20;99.90;;;;;;5075872;28;20201;-54
2023/04/18 05:20:03;;;;;;;9.83;8.63;;;10.20;99.90;;;;;;5076183;28;20205;-54
2023/04/18 05:22:29;;;;;;;9.73;8.27;;;10.20;99.90;;;;;;5076793;28;20233;-55
2023/04/18 05:24:57;;;;;;;14.50;9.17;;;10.20;99.90;;;;;;5076478;28;20258;-54
2023/04/18 05:27:24;;;;;;;14.03;8.90;;;10.30;99.90;;;;;;5075995;28;20201;-55
2023/04/18 05:29:51;;;;;;;10.77;8.63;;;10.40;99.90;;;;;;5076606;28;20200;-54
2023/04/18 05:32:18;;;;;;;10.37;8.60;;;10.50;99.90;;;;;;5076538;28;20644;-55
2023/04/18 05:34:45;;;;;;;10.73;8.60;;;10.50;99.90;;;;;;5076758;28;20205;-54
2023/04/18 05:37:12;;;;;;;10.40;8.80;;;10.50;99.90;;;;;;5076585;28;20734;-55
2023/04/18 05:39:39;;;;;;;10.37;7.93;;;10.60;99.90;;;;;;5077108;28;20215;-55
2023/04/18 05:42:07;;;;;;;10.10;8.63;;;10.60;99.90;;;;;;5077414;28;20267;-55
2023/04/18 05:44:34;;;;;;;11.40;8.60;;;10.70;99.90;;;;;;5077026;28;20687;-55
2023/04/18 05:47:01;;;;;;;10.53;8.60;;;10.70;99.90;;;;;;5077112;28;20208;-55
2023/04/18 05:49:27;;;;;;;10.67;8.77;;;10.70;99.90;;;;;;5077142;28;20216;-55
2023/04/18 05:51:55;;;;;;;10.17;9.00;;;10.60;99.90;;;;;;5076450;28;20557;-55
2023/04/18 05:54:22;;;;;;;10.40;8.73;;;10.60;99.90;;;;;;5077521;28;20207;-54
2023/04/18 05:56:48;;;;;;;13.60;8.73;;;10.60;99.90;;;;;;5076569;28;20565;-55
2023/04/18 05:59:17;;;;;;;10.33;8.27;;;10.60;99.90;;;;;;5077471;28;20197;-54
2023/04/18 06:01:43;;;;;;;10.60;8.57;;;10.60;99.90;;;;;;5076218;28;20599;-54
2023/04/18 06:04:10;;;;;;;10.70;8.63;;;10.60;99.90;;;;;;5076635;28;20208;-55
2023/04/18 06:06:37;;;;;;;9.67;8.67;;;10.50;99.90;;;;;;5076693;28;20692;-55
2023/04/18 06:09:05;;;;;;;10.73;9.37;;;10.50;99.90;;;;;;5076289;28;20606;-54
2023/04/18 06:11:32;;;;;;;12.13;9.23;;;10.50;99.90;;;;;;5075398;28;20232;-55
2023/04/18 06:13:59;;;;;;;11.23;8.77;;;10.50;99.90;;;;;;5076028;28;20209;-55
2023/04/18 06:16:27;;;;;;;9.77;7.93;;;10.60;99.90;;;;;;5075449;28;20298;-55
2023/04/18 06:18:54;;;;;;;10.33;8.67;;;10.60;99.90;;;;;;5075010;28;20211;-55
2023/04/18 06:21:22;;;;;;;11.43;8.93;;;10.60;99.90;;;;;;5075277;28;20225;-55
2023/04/18 06:23:48;;;;;;;11.40;9.50;;;10.70;99.90;;;;;;5075377;28;20201;-55
2023/04/18 06:26:16;;;;;;;9.47;7.83;;;10.70;99.90;;;;;;5074400;28;20213;-55
2023/04/18 06:28:42;;;;;;;11.60;8.50;;;10.90;99.90;;;;;;5074304;28;20213;-55
2023/04/18 06:31:09;;;;;;;10.07;8.53;;;11.10;99.90;;;;;;5074378;28;20233;-55
2023/04/18 06:33:37;;;;;;;10.13;8.20;;;11.30;99.90;;;;;;5074468;28;20219;-54
2023/04/18 06:36:06;;;;;;;13.60;8.40;;;11.50;99.90;;;;;;5074171;28;20232;-54
2023/04/18 06:38:33;;;;;;;9.97;8.70;;;11.90;99.90;;;;;;5074243;28;20212;-55
2023/04/18 06:41:00;;;;;;;10.07;7.87;;;12.20;99.90;;;;;;5074102;28;20216;-54
2023/04/18 06:43:26;;;;;;;11.80;8.40;;;12.50;99.90;;;;;;5074076;28;20571;-54
2023/04/18 06:45:54;;;;;;;11.10;8.27;;;12.60;99.90;;;;;;5074313;28;20220;-54
2023/04/18 06:48:21;;;;;;;8.30;7.40;;;12.50;99.90;;;;;;5074304;28;20208;-55
2023/04/18 06:50:49;;;;;;;11.00;8.07;;;12.40;99.90;;;;;;5073879;28;20584;-55
2023/04/18 06:53:16;;;;;;;11.43;8.70;;;12.30;99.90;;;;;;5073929;28;20228;-55
2023/04/18 06:55:42;;;;;;;9.60;8.07;;;12.20;99.90;;;;;;5073836;28;20216;-55
2023/04/18 06:58:12;;;;;;;10.00;8.33;;;12.00;99.90;;;;;;5073459;28;20668;-55
2023/04/18 07:00:39;;;;;;;10.37;7.90;;;11.90;99.90;;;;;;5073803;28;20669;-55
2023/04/18 07:03:08;;;;;;;10.73;8.87;;;12.00;99.90;;;;;;5073671;28;20646;-55
2023/04/18 07:05:36;;;;;;;10.40;8.00;;;12.10;99.90;;;;;;5073743;28;20665;-55
2023/04/18 07:08:04;;;;;;;9.60;8.13;;;12.20;99.90;;;;;;5073361;28;20296;-55
2023/04/18 07:10:31;;;;;;;10.57;8.80;;;12.20;99.90;;;;;;5073485;28;20229;-55
2023/04/18 07:12:58;;;;;;;11.10;8.73;;;12.30;99.90;;;;;;5073456;28;20224;-55
2023/04/18 07:15:24;;;;;;;10.60;8.53;;;12.10;99.90;;;;;;5073267;28;20209;-56
2023/04/18 07:17:51;;;;;;;10.47;8.30;;;11.90;99.90;;;;;;5073382;28;20217;-55
2023/04/18 07:20:18;;;;;;;10.33;8.63;;;11.80;99.90;;;;;;5073514;28;20205;-55
2023/04/18 07:22:44;;;;;;;10.43;8.60;;;11.70;99.90;;;;;;5061539;28;20226;-55
2023/04/18 07:25:12;;;;;;;10.63;9.10;;;11.80;99.90;;;;;;5048300;28;20212;-57
2023/04/18 07:27:39;;;;;;;9.73;8.40;;;11.80;99.90;;;;;;5051318;28;20229;-57
2023/04/18 07:30:07;;;;;;;10.23;9.13;;;11.90;99.90;;;;;;5052196;28;20206;-58
2023/04/18 07:32:34;;;;;;;9.57;8.50;;;11.80;99.90;;;;;;5052323;28;20232;-61
2023/04/18 07:35:02;;;;;;;11.87;8.30;;;11.90;99.90;;;;;;5052564;28;20216;-59
2023/04/18 07:37:28;;;;;;;11.07;9.03;;;11.80;99.90;;;;;;5051917;28;20478;-59
2023/04/18 07:39:55;;;;;;;9.73;8.57;;;11.80;99.90;;;;;;5049151;28;20205;-60
2023/04/18 07:42:23;;;;;;;11.40;9.50;;;11.90;99.90;;;;;;5031733;28;20257;-59
2023/04/18 07:44:50;;;;;;;11.17;9.30;;;12.00;99.90;;;;;;5032570;28;20206;-59
2023/04/18 07:47:17;;;;;;;10.87;8.53;;;12.00;99.90;;;;;;5032315;28;20214;-59
2023/04/18 07:49:44;;;;;;;11.03;8.83;;;12.10;99.90;;;;;;5032230;28;20206;-59
2023/04/18 07:52:11;;;;;;;10.27;8.87;;;12.20;99.90;;;;;;5035263;28;20720;-59
2023/04/18 07:54:37;;;;;;;10.47;8.83;;;12.30;99.90;;;;;;5052113;28;20205;-60
2023/04/18 07:57:04;;;;;;;9.20;8.20;;;12.50;99.90;;;;;;5052392;28;20239;-60
2023/04/18 07:59:33;;;;;;;10.23;8.67;;;12.70;99.90;;;;;;5052000;28;20232;-63
2023/04/18 08:01:59;;;;;;;11.37;8.90;;;13.00;99.90;;;;;;5053386;28;20218;-58
2023/04/18 08:04:26;;;;;;;10.37;8.10;;;13.20;99.90;;;;;;5053326;28;20212;-59
2023/04/18 08:06:53;;;;;;;9.97;8.53;;;13.50;99.90;;;;;;5053260;28;20205;-59
2023/04/18 08:09:20;;;;;;;10.70;8.50;;;13.80;99.90;;;;;;5053110;28;20590;-58
2023/04/18 08:11:47;;;;;;;10.03;8.10;;;14.20;99.90;;;;;;5053248;28;20230;-57
2023/04/18 08:14:14;;;;;;;10.67;8.77;;;14.60;99.90;;;;;;5053019;28;20558;-57
2023/04/18 08:16:42;;;;;;;9.93;8.00;;;14.90;99.90;;;;;;5052729;28;20217;-58
2023/04/18 08:19:09;;;;;;;13.37;8.00;;;15.20;99.90;;;;;;5052607;28;20206;-58
2023/04/18 08:21:36;;;;;;;11.23;8.73;;;15.40;99.90;;;;;;5052880;28;20217;-58
2023/04/18 08:24:03;;;;;;;11.47;9.00;;;15.50;99.90;;;;;;5052739;28;20208;-58
2023/04/18 08:26:30;;;;;;;10.83;8.40;;;15.50;99.90;;;;;;5052158;28;20213;-59
2023/04/18 08:28:56;;;;;;;10.20;8.33;;;15.40;99.90;;;;;;5052489;28;20205;-59
2023/04/18 08:31:23;;;;;;;9.73;8.07;;;15.50;99.90;;;;;;5052094;28;20233;-59
2023/04/18 08:33:51;;;;;;;9.90;8.03;;;15.60;99.90;;;;;;5051943;28;20198;-59
2023/04/18 08:36:18;;;;;;;8.60;7.70;;;15.50;99.90;;;;;;5052159;28;20212;-58
2023/04/18 08:38:45;;;;;;;11.23;8.60;;;15.60;99.90;;;;;;5052215;28;20589;-59
2023/04/18 08:41:12;;;;;;;10.30;8.93;;;15.60;99.90;;;;;;5052567;28;20205;-59
2023/04/18 08:43:38;;;;;;;9.47;8.47;;;15.50;99.90;;;;;;5052104;28;20205;-59
2023/04/18 08:46:06;;;;;;;10.00;8.17;;;15.40;99.90;;;;;;5051768;28;20696;-59
2023/04/18 08:48:33;;;;;;;9.60;7.97;;;15.20;99.90;;;;;;5052337;28;20263;-59
2023/04/18 08:51:01;;;;;;;9.57;8.03;;;15.10;99.90;;;;;;5051994;28;20205;-59
2023/04/18 08:53:28;;;;;;;10.07;8.10;;;15.10;99.90;;;;;;5052218;28;20221;-59
2023/04/18 08:55:56;;;;;;;8.73;7.83;;;15.00;99.90;;;;;;5051753;28;20665;-59
2023/04/18 08:58:25;;;;;;;9.83;7.60;;;14.90;99.90;;;;;;5052064;28;20208;-59
2023/04/18 09:00:53;;;;;;;8.83;7.93;;;14.90;99.90;;;;;;5052514;28;20213;-58
2023/04/18 09:03:39;;;;;;;9.73;7.90;;;15.00;99.90;;;;;;5052367;28;20666;-58
2023/04/18 09:06:10;;;;;;;8.17;7.27;;;15.10;99.90;;;;;;5051626;28;20205;-58
2023/04/18 09:08:37;;;;;;;9.13;7.90;;;15.20;99.90;;;;;;5052442;28;20206;-58
2023/04/18 09:11:24;;;;;;;10.30;8.23;;;15.10;99.90;;;;;;5051860;28;20670;-58
2023/04/18 09:13:54;;;;;;;9.53;7.73;;;14.90;99.90;;;;;;5052021;28;20735;-58
2023/04/18 09:16:21;;;;;;;9.77;8.00;;;14.80;99.90;;;;;;5052372;28;20597;-58
2023/04/18 09:19:09;;;;;;;9.33;8.30;;;14.90;99.90;;;;;;5052196;28;20212;-58
2023/04/18 09:21:39;;;;;;;8.83;7.50;;;15.20;99.90;;;;;;5051994;28;20226;-58
2023/04/18 09:24:22;;;;;;;10.47;8.10;;;15.50;99.90;;;;;;5052616;28;20225;-61
2023/04/18 09:26:50;;;;;;;7.83;7.03;;;15.70;99.90;;;;;;5052045;28;20300;-58
2023/04/18 09:29:17;;;;;;;8.87;7.97;;;16.00;99.90;;;;;;5051854;28;20267;-59
2023/04/18 09:31:59;;;;;;;10.25;7.90;;;16.40;99.90;;;;;;5051755;28;20226;-59
2023/04/18 09:34:27;;;;;;;7.90;7.10;;;16.70;99.90;;;;;;5052577;28;20261;-60
2023/04/18 09:37:12;;;;;;;10.03;6.93;;;16.80;99.90;;;;;;5052603;28;20248;-59
2023/04/18 09:39:40;;;;;;;8.17;7.37;;;16.70;99.90;;;;;;5052533;28;20209;-58
2023/04/18 09:42:09;;;;;;;11.45;7.30;;;16.80;99.90;;;;;;5052765;28;20728;-59
2023/04/18 09:44:36;;;;;;;8.50;7.47;;;16.80;99.90;;;;;;5052658;28;20210;-60
2023/04/18 09:47:02;;;;;;;9.07;7.30;;;16.70;99.90;;;;;;5056211;28;20213;-58
2023/04/18 09:49:29;;;;;;;7.80;6.63;;;16.50;99.90;;;;;;5056439;28;20589;-59
2023/04/18 09:51:56;;;;;;;7.50;6.53;;;16.40;99.90;;;;;;5055968;28;20222;-58
2023/04/18 09:54:25;;;;;;;8.27;6.80;;;16.30;99.90;;;;;;5056074;28;20245;-58
2023/04/18 09:56:54;;;;;;;7.10;6.15;;;16.30;99.90;;;;;;5056011;28;20236;-60
2023/04/18 09:59:36;;;;;;;8.15;6.47;;;16.30;99.90;;;;;;5056139;28;20674;-59
2023/04/18 10:02:05;;;;;;;7.15;6.30;;;16.40;99.90;;;;;;5056765;28;20317;-59
2023/04/18 10:04:33;;;;;;;7.68;5.95;;;16.60;99.90;;;;;;5055779;28;20746;-61
2023/04/18 10:07:01;;;;;;;7.43;6.07;;;16.60;99.90;;;;;;5055794;28;20202;-59
2023/04/18 10:09:32;;;;;;;8.45;6.38;;;16.60;99.90;;;;;;5055712;28;20216;-60
2023/04/18 10:12:01;;;;;;;8.25;6.57;;;16.70;99.90;;;;;;5056344;28;20316;-61
2023/04/18 10:14:29;;;;;;;6.20;5.60;;;17.00;99.90;;;;;;5046328;28;20583;-60
2023/04/18 10:16:56;;;;;;;8.45;6.55;;;17.20;99.90;;;;;;5053736;28;20202;-58
2023/04/18 10:19:24;;;;;;;8.93;8.02;;;17.30;99.90;;;;;;5054243;28;20208;-57
2023/04/18 10:21:55;;;;;;;7.20;6.50;;;17.30;99.90;;;;;;5053629;28;20240;-57
2023/04/18 10:24:51;;;;;;;7.82;5.85;;;17.40;99.90;;;;;;5054140;28;20214;-57
2023/04/18 10:27:19;;;;;;;6.30;5.70;;;17.30;99.90;;;;;;5053890;28;20649;-58
2023/04/18 10:29:50;;;;;;;6.70;5.57;;;17.30;99.90;;;;;;5053758;28;20229;-59
2023/04/18 10:32:18;;;;;;;6.45;5.80;;;17.50;99.90;;;;;;5053240;28;20230;-58
2023/04/18 10:34:46;;;;;;;6.95;5.47;;;17.70;99.90;;;;;;5053631;28;20295;-58
2023/04/18 10:37:13;;;;;;;6.88;6.10;;;18.10;99.90;;;;;;5053807;28;20425;-58
2023/04/18 10:39:57;;;;;;;5.68;5.07;;;18.10;99.90;;;;;;5053697;28;20209;-57
2023/04/18 10:42:57;;;;;;;6.03;5.25;;;18.00;99.90;;;;;;5053395;28;20295;-58
2023/04/18 10:45:24;;;;;;;6.28;5.53;;;17.80;99.90;;;;;;5045951;28;20202;-60
2023/04/18 10:48:11;;;;;;;6.57;5.35;;;17.90;99.90;;;;;;5054388;28;20669;-59
2023/04/18 10:51:11;;;;;;;5.97;5.15;;;17.80;99.90;;;;;;5054118;28;20209;-59
2023/04/18 10:53:38;;;;;;;6.32;5.72;;;17.80;99.90;;;;;;5054774;28;20240;-58
2023/04/18 10:56:09;;;;;;;6.18;5.13;;;17.80;99.90;;;;;;5054291;28;20209;-59
2023/04/18 10:58:37;;;;;;;5.82;4.75;;;17.90;99.90;;;;;;5054310;28;20201;-59
2023/04/18 11:01:06;;;;;;;4.82;4.40;;;18.10;99.90;;;;;;5054189;28;20699;-61
2023/04/18 11:03:33;;;;;;;7.72;4.85;;;18.20;99.90;;;;;;5053811;28;20206;-59
2023/04/18 11:06:01;;;;;;;6.25;5.05;;;18.30;99.90;;;;;;5054384;28;20665;-59
2023/04/18 11:08:28;;;;;;;6.28;5.25;;;18.10;99.90;;;;;;5053978;28;20210;-58
2023/04/18 11:11:01;;;;;;;5.15;4.55;;;18.00;99.90;;;;;;5053737;28;20205;-59
2023/04/18 11:13:30;;;;;;;5.20;4.70;;;18.00;99.90;;;;;;5053901;28;20746;-59
2023/04/18 11:15:57;;;;;;;5.28;4.55;;;17.90;99.90;;;;;;5053700;28;20627;-58
2023/04/18 11:18:24;;;;;;;4.95;4.45;;;17.70;99.90;;;;;;5053511;28;20683;-59
2023/04/18 11:20:52;;;;;;;6.65;4.88;;;17.50;99.90;;;;;;5049952;28;20210;-59
2023/04/18 11:23:23;;;;;;;5.53;5.00;;;17.20;99.90;;;;;;5052139;28;20197;-58
2023/04/18 11:25:53;;;;;;;6.63;5.07;;;17.10;99.90;;;;;;5053406;28;20205;-59
2023/04/18 11:28:21;;;;;;;8.07;5.18;;;17.10;99.90;;;;;;5052523;28;20205;-59
2023/04/18 11:30:49;;;;;;;6.45;5.43;;;17.20;99.90;;;;;;5052742;28;20202;-59
2023/04/18 11:33:16;;;;;;;6.75;5.45;;;17.20;99.90;;;;;;5052222;28;20297;-60
2023/04/18 11:35:45;;;;;;;6.47;5.43;;;17.10;99.90;;;;;;5053023;28;20451;-57
2023/04/18 11:38:14;;;;;;;8.40;5.60;;;17.10;99.90;;;;;;5052776;28;20214;-57
2023/04/18 11:40:47;;;;;;;6.80;5.65;;;16.80;99.90;;;;;;5053264;28;20568;-57
2023/04/18 11:43:20;;;;;;;6.25;5.30;;;16.60;99.90;;;;;;5052897;28;20228;-57
2023/04/18 11:45:52;;;;;;;5.97;4.88;;;16.60;99.90;;;;;;5053066;28;20213;-57
2023/04/18 11:48:19;;;;;;;5.30;4.80;;;16.60;99.90;;;;;;5053178;28;20205;-57
2023/04/18 11:50:46;;;;;;;5.15;4.65;;;16.50;99.90;;;;;;5053415;28;20297;-56
2023/04/18 11:53:13;;;;;;;9.95;5.30;;;16.40;99.90;;;;;;5053389;28;20233;-57
2023/04/18 11:55:40;;;;;;;6.45;5.13;;;16.50;99.90;;;;;;5052925;28;20205;-56
2023/04/18 11:58:06;;;;;;;6.45;5.32;;;16.80;99.90;;;;;;5052742;28;20213;-56
2023/04/18 12:00:35;;;;;;;5.78;5.00;;;17.20;99.90;;;;;;5053006;28;20209;-56
2023/04/18 12:03:06;;;;;;;5.22;4.72;;;17.50;99.90;;;;;;5052888;28;20644;-56
2023/04/18 12:05:34;;;;;;;4.95;3.92;;;17.90;99.90;;;;;;5053241;28;20209;-57
2023/04/18 12:08:09;;;;;;;5.45;4.50;;;18.20;99.90;;;;;;5051907;28;20724;-57
2023/04/18 12:10:36;;;;;;;7.40;4.20;;;18.30;99.90;;;;;;5053207;28;20207;-57
2023/04/18 12:13:06;;;;;;;4.20;3.80;;;18.10;99.90;;;;;;5052846;28;20451;-57
2023/04/18 12:15:33;;;;;;;3.80;3.40;;;18.20;99.90;;;;;;5052836;28;20259;-58
2023/04/18 12:18:01;;;;;;;4.45;3.70;;;18.30;99.90;;;;;;5052689;28;20209;-57
2023/04/18 12:20:37;;;;;;;4.88;3.42;;;18.40;99.90;;;;;;5052510;28;20206;-58
2023/04/18 12:23:04;;;;;;;4.35;3.55;;;18.40;99.90;;;;;;5052485;28;20225;-57
2023/04/18 12:25:32;;;;;;;4.10;3.47;;;18.40;99.90;;;;;;5052787;28;20223;-57
2023/04/18 12:28:00;;;;;;;3.97;3.42;;;18.50;99.90;;;;;;5052938;28;20635;-57
2023/04/18 12:30:28;;;;;;;4.13;3.60;;;18.60;99.90;;;;;;5053596;28;20205;-57
2023/04/18 12:32:56;;;;;;;3.95;3.35;;;18.70;99.90;;;;;;5053538;28;20316;-57
2023/04/18 12:35:24;;;;;;;4.22;3.17;;;18.80;99.90;;;;;;5053317;28;20216;-57
2023/04/18 12:37:53;;;;;;;4.18;2.97;;;18.70;99.90;;;;;;5053201;28;20271;-57
2023/04/18 12:40:21;;;;;;;4.78;3.25;;;18.60;99.90;;;;;;5053102;28;20592;-57
2023/04/18 12:42:49;;;;;;;3.53;3.22;;;18.70;99.90;;;;;;5052730;28;20308;-57
2023/04/18 12:45:18;;;;;;;4.18;2.60;;;18.90;99.90;;;;;;5052577;28;20228;-57
2023/04/18 12:47:46;;;;;;;3.60;2.75;;;18.90;99.90;;;;;;5052442;28;20217;-57
2023/04/18 12:50:16;;;;;;;4.72;2.58;;;18.50;99.90;;;;;;5052429;28;20221;-57
2023/04/18 12:52:43;;;;;;;3.80;2.92;;;18.00;99.90;;;;;;5052228;28;20232;-57